sensor_id;sensor_type;location;lat;lon;timestamp;pressure;altitude;pressure_sealevel;temperature;humidity
16461;BME280;8341;42.048;24.650;2024-02-14T00:00:13;96851.47;;;8.47;100.00
16461;BME280;8341;42.048;24.650;2024-02-14T00:02:40;96839.34;;;8.34;99.78
16461;BME280;8341;42.048;24.650;2024-02-14T00:05:08;96857.28;;;8.55;100.00
16461;BME280;8341;42.048;24.650;2024-02-14T00:07:36;96863.25;;;8.44;100.00
16461;BME280;8341;42.048;24.650;2024-02-14T00:10:04;96869.78;;;8.38;100.00
16461;BME280;8341;42.048;24.650;2024-02-14T00:12:33;96833.41;;;8.20;100.00
16461;BME280;8341;42.048;24.650;2024-02-14T00:15:01;96874.13;;;8.44;99.70
16461;BME280;8341;42.048;24.650;2024-02-14T00:17:28;96869.72;;;8.47;100.00
16461;BME280;8341;42.048;24.650;2024-02-14T00:19:55;96865.78;;;8.48;99.78
16461;BME280;8341;42.048;24.650;2024-02-14T00:22:23;96879.66;;;8.50;99.96
16461;BME280;8341;42.048;24.650;2024-02-14T00:24:50;96858.16;;;8.37;98.96
16461;BME280;8341;42.048;24.650;2024-02-14T00:27:17;96858.75;;;8.41;99.52
16461;BME280;8341;42.048;24.650;2024-02-14T00:29:46;96873.66;;;8.46;97.18
16461;BME280;8341;42.048;24.650;2024-02-14T00:32:14;96878.16;;;8.49;96.32
16461;BME280;8341;42.048;24.650;2024-02-14T00:34:41;96882.78;;;8.57;96.31
16461;BME280;8341;42.048;24.650;2024-02-14T00:37:08;96880.97;;;8.54;96.90
16461;BME280;8341;42.048;24.650;2024-02-14T00:39:36;96877.22;;;8.52;97.20
16461;BME280;8341;42.048;24.650;2024-02-14T00:42:03;96887.91;;;8.55;97.55
16461;BME280;8341;42.048;24.650;2024-02-14T00:44:31;96884.16;;;8.53;96.61
16461;BME280;8341;42.048;24.650;2024-02-14T00:46:59;96885.75;;;8.45;95.62
16461;BME280;8341;42.048;24.650;2024-02-14T00:49:27;96887.22;;;8.46;99.02
16461;BME280;8341;42.048;24.650;2024-02-14T00:51:54;96881.03;;;8.45;96.09
16461;BME280;8341;42.048;24.650;2024-02-14T00:54:21;96886.69;;;8.42;98.88
16461;BME280;8341;42.048;24.650;2024-02-14T00:56:48;96883.56;;;8.34;100.00
16461;BME280;8341;42.048;24.650;2024-02-14T00:59:15;96878.03;;;8.29;100.00
16461;BME280;8341;42.048;24.650;2024-02-14T01:01:43;96893.03;;;8.39;100.00
16461;BME280;8341;42.048;24.650;2024-02-14T01:04:11;96879.84;;;8.23;100.00
16461;BME280;8341;42.048;24.650;2024-02-14T01:06:38;96879.41;;;8.24;100.00
16461;BME280;8341;42.048;24.650;2024-02-14T01:09:06;96877.13;;;8.23;100.00
16461;BME280;8341;42.048;24.650;2024-02-14T01:11:34;96875.75;;;8.27;100.00
16461;BME280;8341;42.048;24.650;2024-02-14T01:14:01;96876.69;;;8.24;100.00
16461;BME280;8341;42.048;24.650;2024-02-14T01:16:28;96876.69;;;8.24;100.00
16461;BME280;8341;42.048;24.650;2024-02-14T01:18:55;96884.53;;;8.22;100.00
16461;BME280;8341;42.048;24.650;2024-02-14T01:21:24;96882.84;;;8.25;100.00
16461;BME280;8341;42.048;24.650;2024-02-14T01:23:51;96887.16;;;8.16;100.00
16461;BME280;8341;42.048;24.650;2024-02-14T01:26:18;96882.94;;;8.15;100.00
16461;BME280;8341;42.048;24.650;2024-02-14T01:28:46;96886.69;;;8.18;100.00
16461;BME280;8341;42.048;24.650;2024-02-14T01:31:13;96882.84;;;8.25;100.00
16461;BME280;8341;42.048;24.650;2024-02-14T01:33:40;96890.53;;;8.26;98.89
16461;BME280;8341;42.048;24.650;2024-02-14T01:36:07;96892.06;;;8.27;100.00
16461;BME280;8341;42.048;24.650;2024-02-14T01:38:36;96882.84;;;8.25;100.00
16461;BME280;8341;42.048;24.650;2024-02-14T01:41:03;96886.78;;;8.24;99.76
16461;BME280;8341;42.048;24.650;2024-02-14T01:43:30;96883.56;;;8.10;99.73
16461;BME280;8341;42.048;24.650;2024-02-14T01:46:04;96886.84;;;8.14;100.00
16461;BME280;8341;42.048;24.650;2024-02-14T01:48:31;96886.56;;;8.12;99.25
16461;BME280;8341;42.048;24.650;2024-02-14T01:50:59;96893.16;;;8.20;98.53
16461;BME280;8341;42.048;24.650;2024-02-14T01:53:28;96893.16;;;8.20;99.30
16461;BME280;8341;42.048;24.650;2024-02-14T01:55:58;96879.00;;;8.16;99.01
16461;BME280;8341;42.048;24.650;2024-02-14T01:58:26;96892.09;;;8.18;99.39
16461;BME280;8341;42.048;24.650;2024-02-14T02:00:53;96892.91;;;8.09;96.08
16461;BME280;8341;42.048;24.650;2024-02-14T02:03:22;96886.00;;;8.08;98.44
16461;BME280;8341;42.048;24.650;2024-02-14T02:05:50;96900.72;;;8.16;93.27
16461;BME280;8341;42.048;24.650;2024-02-14T02:08:18;96895.88;;;8.20;93.08
16461;BME280;8341;42.048;24.650;2024-02-14T02:10:45;96899.97;;;8.16;96.35
16461;BME280;8341;42.048;24.650;2024-02-14T02:13:13;96902.84;;;8.12;96.17
16461;BME280;8341;42.048;24.650;2024-02-14T02:15:41;96903.09;;;8.24;96.71
16461;BME280;8341;42.048;24.650;2024-02-14T02:18:10;96895.22;;;8.26;95.69
16461;BME280;8341;42.048;24.650;2024-02-14T02:20:37;96901.94;;;8.15;93.67
16461;BME280;8341;42.048;24.650;2024-02-14T02:23:05;96901.47;;;8.17;95.56
16461;BME280;8341;42.048;24.650;2024-02-14T02:25:35;96910.09;;;8.15;96.21
16461;BME280;8341;42.048;24.650;2024-02-14T02:28:02;96914.66;;;8.09;96.36
16461;BME280;8341;42.048;24.650;2024-02-14T02:30:29;96921.97;;;8.18;97.91
16461;BME280;8341;42.048;24.650;2024-02-14T02:32:56;96921.22;;;8.17;96.95
16461;BME280;8341;42.048;24.650;2024-02-14T02:35:24;96917.94;;;8.13;97.29
16461;BME280;8341;42.048;24.650;2024-02-14T02:37:51;96914.66;;;8.09;98.56
16461;BME280;8341;42.048;24.650;2024-02-14T02:40:20;96915.22;;;8.13;97.18
16461;BME280;8341;42.048;24.650;2024-02-14T02:42:48;96918.88;;;8.10;97.13
16461;BME280;8341;42.048;24.650;2024-02-14T02:45:15;96925.50;;;8.09;100.00
16461;BME280;8341;42.048;24.650;2024-02-14T02:47:42;96924.03;;;8.08;100.00
16461;BME280;8341;42.048;24.650;2024-02-14T02:50:09;96922.78;;;8.09;100.00
16461;BME280;8341;42.048;24.650;2024-02-14T02:52:37;96923.66;;;8.15;100.00
16461;BME280;8341;42.048;24.650;2024-02-14T02:55:05;96926.53;;;8.12;100.00
16461;BME280;8341;42.048;24.650;2024-02-14T02:57:33;96932.09;;;8.17;99.54
16461;BME280;8341;42.048;24.650;2024-02-14T03:00:03;96935.28;;;8.16;98.93
16461;BME280;8341;42.048;24.650;2024-02-14T03:02:31;96937.81;;;8.19;100.00
16461;BME280;8341;42.048;24.650;2024-02-14T03:04:58;96944.28;;;8.22;98.36
16461;BME280;8341;42.048;24.650;2024-02-14T03:07:25;96948.22;;;8.21;99.99
16461;BME280;8341;42.048;24.650;2024-02-14T03:09:52;96950.94;;;8.21;100.00
16461;BME280;8341;42.048;24.650;2024-02-14T03:12:19;96953.53;;;8.15;98.29
16461;BME280;8341;42.048;24.650;2024-02-14T03:14:49;96957.78;;;8.16;97.75
16461;BME280;8341;42.048;24.650;2024-02-14T03:17:16;96960.41;;;8.26;98.85
16461;BME280;8341;42.048;24.650;2024-02-14T03:19:43;96959.09;;;8.21;98.51
16461;BME280;8341;42.048;24.650;2024-02-14T03:22:11;96972.06;;;8.17;99.35
16461;BME280;8341;42.048;24.650;2024-02-14T03:24:38;96973.47;;;8.12;98.45
16461;BME280;8341;42.048;24.650;2024-02-14T03:27:05;96974.34;;;8.18;99.35
16461;BME280;8341;42.048;24.650;2024-02-14T03:29:32;96966.00;;;8.22;99.79
16461;BME280;8341;42.048;24.650;2024-02-14T03:32:00;96976.84;;;8.31;100.00
16461;BME280;8341;42.048;24.650;2024-02-14T03:34:30;96984.09;;;8.34;100.00
16461;BME280;8341;42.048;24.650;2024-02-14T03:36:59;96988.75;;;8.34;99.44
16461;BME280;8341;42.048;24.650;2024-02-14T03:39:28;96989.72;;;8.22;100.00
16461;BME280;8341;42.048;24.650;2024-02-14T03:41:54;96989.28;;;8.14;99.60
16461;BME280;8341;42.048;24.650;2024-02-14T03:44:21;96983.16;;;8.04;98.92
16461;BME280;8341;42.048;24.650;2024-02-14T03:46:48;96991.72;;;8.12;99.28
16461;BME280;8341;42.048;24.650;2024-02-14T03:49:17;96992.59;;;8.18;98.93
16461;BME280;8341;42.048;24.650;2024-02-14T03:51:45;96998.19;;;8.14;99.05
16461;BME280;8341;42.048;24.650;2024-02-14T03:54:12;96997.63;;;8.10;99.26
16461;BME280;8341;42.048;24.650;2024-02-14T03:56:39;96993.88;;;8.08;98.85
16461;BME280;8341;42.048;24.650;2024-02-14T03:59:06;97009.25;;;8.11;99.80
16461;BME280;8341;42.048;24.650;2024-02-14T04:01:33;97002.78;;;8.08;96.02
16461;BME280;8341;42.048;24.650;2024-02-14T04:04:01;97006.94;;;8.18;97.68
16461;BME280;8341;42.048;24.650;2024-02-14T04:06:29;97010.22;;;8.23;98.86
16461;BME280;8341;42.048;24.650;2024-02-14T04:08:58;97021.56;;;8.21;100.00
16461;BME280;8341;42.048;24.650;2024-02-14T04:11:25;97016.28;;;8.27;100.00
16461;BME280;8341;42.048;24.650;2024-02-14T04:13:52;97020.94;;;8.26;99.77
16461;BME280;8341;42.048;24.650;2024-02-14T04:16:20;97012.25;;;8.13;100.00
16461;BME280;8341;42.048;24.650;2024-02-14T04:18:47;97023.25;;;8.09;99.92
16461;BME280;8341;42.048;24.650;2024-02-14T04:21:14;97031.81;;;8.17;100.00
16461;BME280;8341;42.048;24.650;2024-02-14T04:23:43;97033.22;;;8.12;100.00
16461;BME280;8341;42.048;24.650;2024-02-14T04:26:10;97020.84;;;8.11;100.00
16461;BME280;8341;42.048;24.650;2024-02-14T04:28:38;97038.16;;;8.23;99.27
16461;BME280;8341;42.048;24.650;2024-02-14T04:31:06;97041.91;;;8.26;98.71
16461;BME280;8341;42.048;24.650;2024-02-14T04:33:35;97043.44;;;8.27;100.00
16461;BME280;8341;42.048;24.650;2024-02-14T04:36:02;97043.72;;;8.29;100.00
16461;BME280;8341;42.048;24.650;2024-02-14T04:38:30;97047.34;;;8.26;98.71
16461;BME280;8341;42.048;24.650;2024-02-14T04:40:59;97043.56;;;8.23;98.67
16461;BME280;8341;42.048;24.650;2024-02-14T04:43:26;97051.44;;;8.21;98.47
16461;BME280;8341;42.048;24.650;2024-02-14T04:45:53;97041.16;;;8.25;98.62
16461;BME280;8341;42.048;24.650;2024-02-14T04:48:20;97049.34;;;8.16;97.72
16461;BME280;8341;42.048;24.650;2024-02-14T04:50:47;97054.19;;;8.12;98.45
16461;BME280;8341;42.048;24.650;2024-02-14T04:53:14;97053.44;;;8.11;100.00
16461;BME280;8341;42.048;24.650;2024-02-14T04:55:42;97054.16;;;8.21;100.00
16461;BME280;8341;42.048;24.650;2024-02-14T04:58:11;97061.53;;;8.20;100.00
16461;BME280;8341;42.048;24.650;2024-02-14T05:00:38;97059.03;;;8.08;100.00
16461;BME280;8341;42.048;24.650;2024-02-14T05:03:05;97063.56;;;8.11;100.00
16461;BME280;8341;42.048;24.650;2024-02-14T05:05:33;97057.72;;;8.03;100.00
16461;BME280;8341;42.048;24.650;2024-02-14T05:08:00;97069.72;;;8.11;100.00
16461;BME280;8341;42.048;24.650;2024-02-14T05:10:27;97058.63;;;8.00;99.56
16461;BME280;8341;42.048;24.650;2024-02-14T05:12:55;97071.91;;;7.98;100.00
16461;BME280;8341;42.048;24.650;2024-02-14T05:15:23;97074.28;;;8.05;99.41
16461;BME280;8341;42.048;24.650;2024-02-14T05:17:50;97065.66;;;8.07;100.00
16461;BME280;8341;42.048;24.650;2024-02-14T05:20:17;97087.25;;;8.01;97.99
16461;BME280;8341;42.048;24.650;2024-02-14T05:22:44;97080.69;;;7.93;96.44
16461;BME280;8341;42.048;24.650;2024-02-14T05:25:11;97077.03;;;7.96;98.08
16461;BME280;8341;42.048;24.650;2024-02-14T05:27:39;97082.78;;;7.98;97.82
16461;BME280;8341;42.048;24.650;2024-02-14T05:30:06;97090.28;;;8.03;97.33
16461;BME280;8341;42.048;24.650;2024-02-14T05:32:36;97089.97;;;8.01;94.66
16461;BME280;8341;42.048;24.650;2024-02-14T05:35:03;97093.28;;;8.05;95.13
16461;BME280;8341;42.048;24.650;2024-02-14T05:37:31;97090.88;;;8.07;96.53
16461;BME280;8341;42.048;24.650;2024-02-14T05:39:58;97103.06;;;8.12;98.48
16461;BME280;8341;42.048;24.650;2024-02-14T05:42:26;97104.31;;;8.02;93.68
16461;BME280;8341;42.048;24.650;2024-02-14T05:44:53;97099.03;;;8.07;94.97
16461;BME280;8341;42.048;24.650;2024-02-14T05:47:20;97108.06;;;8.04;92.20
16461;BME280;8341;42.048;24.650;2024-02-14T05:49:48;97106.59;;;8.03;94.58
16461;BME280;8341;42.048;24.650;2024-02-14T05:52:15;97101.59;;;8.11;92.12
16461;BME280;8341;42.048;24.650;2024-02-14T05:54:43;97105.91;;;8.17;93.75
16461;BME280;8341;42.048;24.650;2024-02-14T05:57:11;97121.00;;;8.18;92.64
16461;BME280;8341;42.048;24.650;2024-02-14T05:59:38;97115.72;;;8.24;92.06
16461;BME280;8341;42.048;24.650;2024-02-14T06:02:05;97124.13;;;8.35;92.75
16461;BME280;8341;42.048;24.650;2024-02-14T06:04:33;97130.16;;;8.39;93.18
16461;BME280;8341;42.048;24.650;2024-02-14T06:07:02;97131.78;;;8.46;92.77
16461;BME280;8341;42.048;24.650;2024-02-14T06:09:32;97131.22;;;8.42;92.17
16461;BME280;8341;42.048;24.650;2024-02-14T06:11:59;97137.56;;;8.39;89.26
16461;BME280;8341;42.048;24.650;2024-02-14T06:14:26;97137.56;;;8.39;86.97
16461;BME280;8341;42.048;24.650;2024-02-14T06:16:54;97139.03;;;8.40;87.64
16461;BME280;8341;42.048;24.650;2024-02-14T06:19:21;97134.22;;;8.44;91.59
16461;BME280;8341;42.048;24.650;2024-02-14T06:21:49;97143.06;;;8.53;89.94
16461;BME280;8341;42.048;24.650;2024-02-14T06:24:18;97147.19;;;8.49;87.42
16461;BME280;8341;42.048;24.650;2024-02-14T06:26:45;97137.28;;;8.37;84.66
16461;BME280;8341;42.048;24.650;2024-02-14T06:29:12;97151.41;;;8.50;85.30
16461;BME280;8341;42.048;24.650;2024-02-14T06:31:39;97157.16;;;8.43;84.99
16461;BME280;8341;42.048;24.650;2024-02-14T06:34:07;97161.22;;;8.47;84.68
16461;BME280;8341;42.048;24.650;2024-02-14T06:36:36;97164.06;;;8.53;85.67
16461;BME280;8341;42.048;24.650;2024-02-14T06:39:03;97171.44;;;8.61;85.58
16461;BME280;8341;42.048;24.650;2024-02-14T06:41:32;97177.13;;;8.72;86.95
16461;BME280;8341;42.048;24.650;2024-02-14T06:43:59;97170.00;;;8.75;87.20
16461;BME280;8341;42.048;24.650;2024-02-14T06:46:26;97167.84;;;8.79;85.16
16461;BME280;8341;42.048;24.650;2024-02-14T06:48:53;97173.00;;;8.77;84.13
16461;BME280;8341;42.048;24.650;2024-02-14T06:51:21;97180.53;;;8.82;83.84
16461;BME280;8341;42.048;24.650;2024-02-14T06:53:49;97181.75;;;8.81;85.14
16461;BME280;8341;42.048;24.650;2024-02-14T06:56:16;97179.66;;;8.76;84.65
16461;BME280;8341;42.048;24.650;2024-02-14T06:58:45;97191.41;;;8.82;85.77
16461;BME280;8341;42.048;24.650;2024-02-14T07:01:12;97193.50;;;8.87;84.74
16461;BME280;8341;42.048;24.650;2024-02-14T07:03:40;97194.91;;;8.73;83.81
16461;BME280;8341;42.048;24.650;2024-02-14T07:06:07;97196.31;;;8.69;82.35
16461;BME280;8341;42.048;24.650;2024-02-14T07:11:10;97197.81;;;8.70;82.97
16461;BME280;8341;42.048;24.650;2024-02-14T07:13:37;97207.47;;;8.71;84.91
16461;BME280;8341;42.048;24.650;2024-02-14T07:16:06;97213.16;;;8.82;82.75
16461;BME280;8341;42.048;24.650;2024-02-14T07:18:34;97212.91;;;8.71;83.28
16461;BME280;8341;42.048;24.650;2024-02-14T07:21:00;97217.75;;;8.67;81.71
16461;BME280;8341;42.048;24.650;2024-02-14T07:23:28;97220.28;;;8.79;81.08
16461;BME280;8341;42.048;24.650;2024-02-14T07:25:55;97219.53;;;8.79;83.54
16461;BME280;8341;42.048;24.650;2024-02-14T07:28:22;97219.78;;;8.90;82.59
16461;BME280;8341;42.048;24.650;2024-02-14T07:30:49;97226.97;;;9.02;83.61
16461;BME280;8341;42.048;24.650;2024-02-14T07:33:18;97222.78;;;8.92;83.08
16461;BME280;8341;42.048;24.650;2024-02-14T07:35:45;97230.31;;;8.97;83.55
16461;BME280;8341;42.048;24.650;2024-02-14T07:38:12;97238.09;;;9.13;82.62
16461;BME280;8341;42.048;24.650;2024-02-14T07:40:39;97238.25;;;9.10;83.35
16461;BME280;8341;42.048;24.650;2024-02-14T07:43:07;97247.38;;;8.98;84.70
16461;BME280;8341;42.048;24.650;2024-02-14T07:45:34;97248.84;;;9.08;84.60
16461;BME280;8341;42.048;24.650;2024-02-14T07:48:01;97251.72;;;9.04;83.69
16461;BME280;8341;42.048;24.650;2024-02-14T07:50:31;97259.56;;;9.11;84.95
16461;BME280;8341;42.048;24.650;2024-02-14T07:52:58;97262.31;;;9.02;82.11
16461;BME280;8341;42.048;24.650;2024-02-14T07:55:25;97261.59;;;8.93;81.87
16461;BME280;8341;42.048;24.650;2024-02-14T07:57:52;97255.84;;;9.00;83.71
16461;BME280;8341;42.048;24.650;2024-02-14T08:00:19;97252.84;;;8.89;82.68
16461;BME280;8341;42.048;24.650;2024-02-14T08:02:49;97260.56;;;8.90;84.18
16461;BME280;8341;42.048;24.650;2024-02-14T08:05:16;97258.00;;;8.87;84.34
16461;BME280;8341;42.048;24.650;2024-02-14T08:07:45;97260.59;;;8.81;84.72
16461;BME280;8341;42.048;24.650;2024-02-14T08:10:13;97268.16;;;8.77;82.13
16461;BME280;8341;42.048;24.650;2024-02-14T08:12:40;97278.13;;;8.80;80.89
16461;BME280;8341;42.048;24.650;2024-02-14T08:15:09;97275.00;;;8.72;81.59
16461;BME280;8341;42.048;24.650;2024-02-14T08:17:36;97272.06;;;8.85;79.94
16461;BME280;8341;42.048;24.650;2024-02-14T08:20:04;97278.75;;;8.75;82.04
16461;BME280;8341;42.048;24.650;2024-02-14T08:22:32;97285.38;;;8.83;84.83
16461;BME280;8341;42.048;24.650;2024-02-14T08:25:01;97285.69;;;8.76;83.86
16461;BME280;8341;42.048;24.650;2024-02-14T08:27:28;97287.06;;;8.80;82.48
16461;BME280;8341;42.048;24.650;2024-02-14T08:29:57;97287.78;;;8.81;84.01
16461;BME280;8341;42.048;24.650;2024-02-14T08:32:24;97291.97;;;8.91;80.21
16461;BME280;8341;42.048;24.650;2024-02-14T08:34:51;97278.41;;;8.82;83.92
16461;BME280;8341;42.048;24.650;2024-02-14T08:37:18;97288.09;;;8.74;82.76
16461;BME280;8341;42.048;24.650;2024-02-14T08:39:45;97294.44;;;8.80;81.06
16461;BME280;8341;42.048;24.650;2024-02-14T08:42:13;97289.56;;;8.93;82.94
16461;BME280;8341;42.048;24.650;2024-02-14T08:44:40;97299.88;;;8.80;82.70
16461;BME280;8341;42.048;24.650;2024-02-14T08:47:07;97290.19;;;8.88;79.48
16461;BME280;8341;42.048;24.650;2024-02-14T08:49:35;97302.13;;;8.91;82.68
16461;BME280;8341;42.048;24.650;2024-02-14T08:52:02;97302.84;;;8.91;80.31
16461;BME280;8341;42.048;24.650;2024-02-14T08:54:29;97310.69;;;8.98;80.78
16461;BME280;8341;42.048;24.650;2024-02-14T08:56:58;97306.66;;;8.85;80.11
16461;BME280;8341;42.048;24.650;2024-02-14T08:59:26;97303.78;;;8.88;80.16
16461;BME280;8341;42.048;24.650;2024-02-14T09:01:53;97308.81;;;8.80;80.28
16461;BME280;8341;42.048;24.650;2024-02-14T09:04:20;97317.41;;;8.79;79.22
16461;BME280;8341;42.048;24.650;2024-02-14T09:06:47;97312.28;;;8.72;78.16
16461;BME280;8341;42.048;24.650;2024-02-14T09:09:14;97308.38;;;8.73;78.32
16461;BME280;8341;42.048;24.650;2024-02-14T09:11:41;97304.41;;;8.74;79.86
16461;BME280;8341;42.048;24.650;2024-02-14T09:14:09;97318.31;;;8.76;78.92
16461;BME280;8341;42.048;24.650;2024-02-14T09:16:37;97319.41;;;8.69;77.98
16461;BME280;8341;42.048;24.650;2024-02-14T09:19:05;97326.78;;;8.69;78.88
16461;BME280;8341;42.048;24.650;2024-02-14T09:21:33;97316.53;;;8.64;79.00
16461;BME280;8341;42.048;24.650;2024-02-14T09:24:01;97319.84;;;8.68;79.36
16461;BME280;8341;42.048;24.650;2024-02-14T09:26:29;97329.19;;;8.76;78.99
16461;BME280;8341;42.048;24.650;2024-02-14T09:28:56;97323.31;;;8.77;80.47
16461;BME280;8341;42.048;24.650;2024-02-14T09:31:23;97331.31;;;8.63;79.09
16461;BME280;8341;42.048;24.650;2024-02-14T09:33:52;97324.06;;;8.69;80.06
16461;BME280;8341;42.048;24.650;2024-02-14T09:36:22;97331.59;;;8.74;81.33
16461;BME280;8341;42.048;24.650;2024-02-14T09:38:50;97329.50;;;8.78;79.60
16461;BME280;8341;42.048;24.650;2024-02-14T09:41:22;97341.69;;;8.92;80.27
16461;BME280;8341;42.048;24.650;2024-02-14T09:43:50;97337.00;;;8.92;81.13
16461;BME280;8341;42.048;24.650;2024-02-14T09:46:17;97330.69;;;8.77;80.53
16461;BME280;8341;42.048;24.650;2024-02-14T09:48:45;97336.00;;;8.80;81.31
16461;BME280;8341;42.048;24.650;2024-02-14T09:51:13;97337.22;;;8.70;81.66
16461;BME280;8341;42.048;24.650;2024-02-14T09:53:41;97332.38;;;8.65;83.14
16461;BME280;8341;42.048;24.650;2024-02-14T09:56:10;97340.38;;;8.69;83.94
16461;BME280;8341;42.048;24.650;2024-02-14T09:58:39;97333.16;;;8.57;84.08
16461;BME280;8341;42.048;24.650;2024-02-14T10:01:07;97330.75;;;8.59;85.22
16461;BME280;8341;42.048;24.650;2024-02-14T10:03:34;97341.03;;;8.55;85.46
16461;BME280;8341;42.048;24.650;2024-02-14T10:06:02;97341.47;;;8.62;84.17
16461;BME280;8341;42.048;24.650;2024-02-14T10:08:31;97337.09;;;8.56;84.66
16461;BME280;8341;42.048;24.650;2024-02-14T10:10:58;97334.81;;;8.63;86.64
16461;BME280;8341;42.048;24.650;2024-02-14T10:13:28;97335.72;;;8.69;85.03
16461;BME280;8341;42.048;24.650;2024-02-14T10:15:58;97325.31;;;8.59;85.95
16461;BME280;8341;42.048;24.650;2024-02-14T10:18:25;97331.31;;;8.63;85.44
16461;BME280;8341;42.048;24.650;2024-02-14T10:20:53;97339.47;;;8.72;87.84
16461;BME280;8341;42.048;24.650;2024-02-14T10:23:21;97336.44;;;8.79;83.64
16461;BME280;8341;42.048;24.650;2024-02-14T10:25:50;97327.03;;;8.89;86.10
16461;BME280;8341;42.048;24.650;2024-02-14T10:28:17;97337.91;;;8.89;86.28
16461;BME280;8341;42.048;24.650;2024-02-14T10:30:46;97332.28;;;9.02;84.79
16461;BME280;8341;42.048;24.650;2024-02-14T10:33:15;97339.72;;;9.01;86.49
16461;BME280;8341;42.048;24.650;2024-02-14T10:35:42;97337.28;;;9.03;87.44
16461;BME280;8341;42.048;24.650;2024-02-14T10:38:09;97330.44;;;9.08;87.92
16461;BME280;8341;42.048;24.650;2024-02-14T10:40:38;97333.31;;;9.13;84.74
16461;BME280;8341;42.048;24.650;2024-02-14T10:43:07;97332.19;;;8.87;84.28
16461;BME280;8341;42.048;24.650;2024-02-14T10:45:35;97322.63;;;9.01;83.36
16461;BME280;8341;42.048;24.650;2024-02-14T10:48:04;97324.28;;;8.98;87.33
16461;BME280;8341;42.048;24.650;2024-02-14T10:50:33;97320.88;;;9.21;85.11
16461;BME280;8341;42.048;24.650;2024-02-14T10:53:04;97314.75;;;9.35;86.35
16461;BME280;8341;42.048;24.650;2024-02-14T10:55:33;97318.59;;;9.20;86.70
16461;BME280;8341;42.048;24.650;2024-02-14T10:58:01;97322.16;;;9.02;85.16
16461;BME280;8341;42.048;24.650;2024-02-14T11:00:30;97315.56;;;8.85;84.49
16461;BME280;8341;42.048;24.650;2024-02-14T11:02:59;97325.22;;;8.95;86.01
16461;BME280;8341;42.048;24.650;2024-02-14T11:05:27;97324.59;;;9.00;87.06
16461;BME280;8341;42.048;24.650;2024-02-14T11:07:54;97330.22;;;8.88;85.31
16461;BME280;8341;42.048;24.650;2024-02-14T11:10:22;97327.94;;;8.86;86.70
16461;BME280;8341;42.048;24.650;2024-02-14T11:12:49;97323.06;;;8.99;86.04
16461;BME280;8341;42.048;24.650;2024-02-14T11:15:18;97324.84;;;9.11;85.87
16461;BME280;8341;42.048;24.650;2024-02-14T11:17:48;97322.00;;;9.06;87.83
16461;BME280;8341;42.048;24.650;2024-02-14T11:20:18;97321.25;;;8.96;83.97
16461;BME280;8341;42.048;24.650;2024-02-14T11:22:55;97323.19;;;9.05;87.79
16461;BME280;8341;42.048;24.650;2024-02-14T11:25:28;97312.94;;;9.32;84.75
16461;BME280;8341;42.048;24.650;2024-02-14T11:27:55;97311.81;;;9.48;84.60
16461;BME280;8341;42.048;24.650;2024-02-14T11:30:29;97319.66;;;9.55;83.81
16461;BME280;8341;42.048;24.650;2024-02-14T11:33:13;97320.06;;;9.63;84.38
16461;BME280;8341;42.048;24.650;2024-02-14T11:35:40;97324.06;;;9.53;83.41
16461;BME280;8341;42.048;24.650;2024-02-14T11:38:08;97320.47;;;9.70;83.50
16461;BME280;8341;42.048;24.650;2024-02-14T11:40:36;97326.13;;;9.58;84.49
16461;BME280;8341;42.048;24.650;2024-02-14T11:43:04;97326.34;;;9.69;84.32
16461;BME280;8341;42.048;24.650;2024-02-14T11:45:31;97331.88;;;9.60;83.73
16461;BME280;8341;42.048;24.650;2024-02-14T11:47:58;97332.31;;;9.58;83.21
16461;BME280;8341;42.048;24.650;2024-02-14T11:50:26;97335.34;;;9.60;82.96
16461;BME280;8341;42.048;24.650;2024-02-14T11:52:54;97334.59;;;9.60;83.84
16461;BME280;8341;42.048;24.650;2024-02-14T11:55:27;97335.03;;;9.58;84.01
16461;BME280;8341;42.048;24.650;2024-02-14T11:57:55;97337.94;;;9.55;82.66
16461;BME280;8341;42.048;24.650;2024-02-14T12:00:23;97339.50;;;9.47;81.85
16461;BME280;8341;42.048;24.650;2024-02-14T12:02:51;97334.63;;;9.51;81.64
16461;BME280;8341;42.048;24.650;2024-02-14T12:05:18;97330.31;;;9.35;82.66
16461;BME280;8341;42.048;24.650;2024-02-14T12:07:47;97330.16;;;9.38;83.59
16461;BME280;8341;42.048;24.650;2024-02-14T12:10:14;97333.13;;;9.17;84.60
16461;BME280;8341;42.048;24.650;2024-02-14T12:12:45;97329.63;;;9.25;84.57
16461;BME280;8341;42.048;24.650;2024-02-14T12:15:12;97325.63;;;9.35;84.87
16461;BME280;8341;42.048;24.650;2024-02-14T12:17:41;97328.19;;;9.39;83.12
16461;BME280;8341;42.048;24.650;2024-02-14T12:20:09;97326.75;;;9.20;82.98
16461;BME280;8341;42.048;24.650;2024-02-14T12:22:38;97319.66;;;9.22;83.23
16461;BME280;8341;42.048;24.650;2024-02-14T12:25:08;97317.19;;;9.33;83.79
16461;BME280;8341;42.048;24.650;2024-02-14T12:27:36;97318.59;;;9.20;83.87
16461;BME280;8341;42.048;24.650;2024-02-14T12:30:04;97318.03;;;9.16;84.02
16461;BME280;8341;42.048;24.650;2024-02-14T12:32:31;97325.44;;;9.15;83.43
16461;BME280;8341;42.048;24.650;2024-02-14T12:34:58;97315.44;;;9.21;82.59
16461;BME280;8341;42.048;24.650;2024-02-14T12:37:26;97319.03;;;9.27;83.32
16461;BME280;8341;42.048;24.650;2024-02-14T12:39:53;97314.25;;;9.46;81.66
16461;BME280;8341;42.048;24.650;2024-02-14T12:42:22;97316.16;;;9.55;82.17
16461;BME280;8341;42.048;24.650;2024-02-14T12:44:51;97323.22;;;9.61;81.55
16461;BME280;8341;42.048;24.650;2024-02-14T12:47:20;97313.38;;;9.64;79.66
16461;BME280;8341;42.048;24.650;2024-02-14T12:49:48;97319.81;;;9.75;79.12
16461;BME280;8341;42.048;24.650;2024-02-14T12:52:15;97317.38;;;9.77;79.53
16461;BME280;8341;42.048;24.650;2024-02-14T12:54:43;97322.34;;;9.79;78.70
16461;BME280;8341;42.048;24.650;2024-02-14T12:57:10;97326.59;;;9.80;77.92
16461;BME280;8341;42.048;24.650;2024-02-14T12:59:39;97332.28;;;9.91;76.76
16461;BME280;8341;42.048;24.650;2024-02-14T13:02:07;97328.31;;;9.92;77.47
16461;BME280;8341;42.048;24.650;2024-02-14T13:04:34;97334.41;;;9.87;76.92
16461;BME280;8341;42.048;24.650;2024-02-14T13:07:01;97327.63;;;9.82;76.31
16461;BME280;8341;42.048;24.650;2024-02-14T13:09:28;97328.56;;;9.79;77.01
16461;BME280;8341;42.048;24.650;2024-02-14T13:11:55;97333.88;;;9.74;74.47
16461;BME280;8341;42.048;24.650;2024-02-14T13:14:23;97344.66;;;9.92;76.47